Data for 06/22/2005

Time Sea-Level Adjusted Pressure Absolute Pressure Temperature Relative Humidity Dew Point   
(mb) (inHg) (mb) (inHg) (C) (F) (%) (C) (F)
00:05 1021 30.15 850 25.1 17.2 62.9 67 11.1 52
00:10 1021 30.15 850 25.1 17.4 63.3 60 9.7 49.4
00:15 1021 30.15 850 25.1 17.9 64.1 61 10.2 50.4
00:20 1022 30.18 851 25.13 17.8 64.1 63 10.8 51.5
00:25 1022 30.18 851 25.13 17.6 63.7 63 10.5 50.9
00:30 1022 30.18 851 25.13 17.8 64 62 10.4 50.7
00:35 1022 30.18 851 25.13 17.9 64.3 61 10.4 50.7
00:40 1023 30.21 852 25.16 17.9 64.3 64 11.1 52
00:45 1023 30.21 852 25.16 17.8 64 65 11.1 51.9
00:50 1023 30.21 852 25.16 17.6 63.7 65 11 51.8
00:55 1023 30.21 853 25.19 17.6 63.7 67 11.6 52.9
01:00 1024 30.24 853 25.19 17.5 63.5 64 10.8 51.4
01:05 1023 30.21 853 25.19 17.8 64.1 62 10.4 50.8
01:10 1023 30.21 853 25.19 17.7 63.9 61 10.2 50.4
01:15 1023 30.21 852 25.16 17.2 62.9 64 10.3 50.5
01:20 1023 30.21 852 25.16 16.7 62.1 66 10.4 50.7
01:25 1023 30.21 852 25.16 16.4 61.6 71 11.2 52.2
01:30 1023 30.21 852 25.16 16 60.7 72 11 51.8
01:35 1023 30.21 852 25.16 15.9 60.6 74 11.4 52.5
01:40 1022 30.18 852 25.16 16 60.7 73 11.1 52
01:45 1022 30.18 851 25.13 15.7 60.3 76 11.5 52.8
01:50 1022 30.18 851 25.13 15.6 60 74 11 51.7
01:55 1022 30.18 851 25.13 15.6 60.1 75 11.1 52.1
02:00 1022 30.18 851 25.13 15.4 59.7 78 11.5 52.8
02:05 1022 30.18 851 25.13 15.2 59.4 76 11.1 52
02:10 1022 30.18 851 25.13 15.5 59.8 76 11.3 52.3
02:15 1022 30.18 851 25.13 15.8 60.4 73 11 51.8
02:20 1022 30.18 851 25.13 15.6 60.1 75 11.2 52.1
02:25 1022 30.18 851 25.13 15.4 59.8 76 11.3 52.3
02:30 1021 30.15 850 25.1 15.3 59.5 76 11.1 52
02:35 1020 30.12 849 25.07 15.3 59.6 75 11 51.9
02:40 1020 30.12 849 25.07 15.3 59.6 76 11.2 52.2
02:45 1019 30.09 849 25.07 15 59.1 78 11.3 52.3
02:50 1019 30.09 849 25.07 14.8 58.7 78 11.1 52
02:55 1019 30.09 848 25.04 14.7 58.5 79 11.2 52.1
03:00 1019 30.09 849 25.07 14.6 58.4 80 11.2 52.2
03:05 1019 30.09 849 25.07 14.5 58.2 79 11 51.8
03:10 1019 30.09 849 25.07 14.7 58.4 78 10.9 51.5
03:15 1019 30.09 849 25.07 14.9 58.9 75 10.6 51
03:20 1019 30.09 849 25.07 15.1 59.2 75 10.7 51.2
03:25 1019 30.09 848 25.04 15 59 76 10.8 51.4
03:30 1019 30.09 848 25.04 15 58.9 75 10.5 50.9
03:35 1019 30.09 848 25.04 15 58.9 74 10.3 50.6
03:40 1019 30.09 848 25.04 15.1 59.3 73 10.3 50.5
03:45 1019 30.09 848 25.04 15.3 59.5 72 10.4 50.6
03:50 1019 30.09 848 25.04 15.2 59.4 72 10.2 50.4
03:55 1019 30.09 848 25.04 15.2 59.3 71 10 50.1
04:00 1019 30.09 848 25.04 15.3 59.5 70 9.9 49.8
04:05 1019 30.09 848 25.04 15.4 59.8 70 10.1 50.1
04:10 1019 30.09 848 25.04 15.6 60.1 68 9.8 49.6
04:15 1019 30.09 848 25.04 15.7 60.3 68 9.8 49.7
04:20 1019 30.09 848 25.04 15.8 60.4 67 9.7 49.5
04:25 1019 30.09 848 25.04 15.7 60.2 67 9.7 49.4
04:30 1019 30.09 848 25.04 15.7 60.2 68 9.8 49.6
04:35 1019 30.09 848 25.04 15.5 59.9 69 9.9 49.8
04:40 1019 30.09 848 25.04 15.3 59.6 69 9.7 49.5
04:45 1019 30.09 848 25.04 15.3 59.5 70 9.9 49.7
04:50 1019 30.09 848 25.04 15.3 59.5 72 10.4 50.7
04:55 1019 30.09 848 25.04 15.1 59.2 71 9.9 49.9
05:00 1019 30.09 848 25.04 15 59 69 9.5 49.1
05:05 1019 30.09 848 25.04 15.1 59.1 70 9.7 49.4
05:10 1019 30.09 848 25.04 15.1 59.1 70 9.8 49.6
05:15 1019 30.09 848 25.04 14.9 58.9 71 9.8 49.6
05:20 1019 30.09 848 25.04 14.8 58.6 71 9.6 49.3
05:25 1019 30.09 848 25.04 14.8 58.6 71 9.6 49.3
05:30 1019 30.09 848 25.04 14.8 58.6 71 9.7 49.5
05:35 1019 30.09 848 25.04 14.5 58.1 71 9.3 48.7
05:40 1019 30.09 848 25.04 14.9 58.7 69 9.3 48.7
05:45 1019 30.09 848 25.04 15 59 69 9.3 48.8
05:50 1019 30.09 848 25.04 14.9 58.9 69 9.4 48.8
05:55 1019 30.09 848 25.04 14.9 58.8 69 9.3 48.8
06:00 1019 30.09 848 25.04 15 59 68 9.3 48.7
06:05 1019 30.09 848 25.04 15.2 59.3 67 9.2 48.6
06:10 1019 30.09 848 25.04 15.3 59.5 68 9.4 48.9
06:15 1019 30.09 848 25.04 15.1 59.2 68 9.4 48.8
06:20 1019 30.09 848 25.04 15.2 59.3 68 9.4 48.9
06:25 1019 30.09 848 25.04 15.3 59.5 68 9.5 49
06:30 1019 30.09 848 25.04 15.2 59.4 69 9.6 49.2
06:35 1019 30.09 848 25.04 15.1 59.1 69 9.5 49.1
06:40 1019 30.09 848 25.04 15.2 59.4 69 9.7 49.4
06:45 1019 30.09 848 25.04 15.3 59.5 69 9.8 49.6
06:50 1019 30.09 848 25.04 15.2 59.3 69 9.6 49.3
06:55 1019 30.09 848 25.04 15.4 59.8 69 9.9 49.8
07:00 1019 30.09 848 25.04 15.7 60.2 68 9.8 49.6
07:05 1019 30.09 848 25.04 15.9 60.5 66 9.6 49.2
07:10 1019 30.09 848 25.04 16.1 60.9 66 9.7 49.5
07:15 1019 30.09 848 25.04 16.2 61.2 66 9.8 49.7
07:20 1019 30.09 848 25.04 16.6 61.8 65 10 50.1
07:25 1019 30.09 848 25.04 16.9 62.4 64 10 50.1
07:30 1019 30.09 848 25.04 17 62.6 63 10.1 50.2
07:35 1019 30.09 848 25.04 17.4 63.2 62 10.1 50.2
07:40 1019 30.09 848 25.04 17.5 63.5 62 10.2 50.3
07:45 1019 30.09 848 25.04 17.9 64.2 60 10.2 50.4
07:50 1019 30.09 848 25.04 18.2 64.8 60 10.4 50.7
07:55 1019 30.09 848 25.04 18 64.3 59 9.9 49.8
08:00 1019 30.09 848 25.04 18 64.4 58 9.8 49.7
08:05 1019 30.09 848 25.04 18.7 65.6 57 10.2 50.4
08:10 1019 30.09 848 25.04 18.5 65.3 57 10 50
08:15 1019 30.09 848 25.04 18.4 65.2 56 9.5 49.1
08:20 1019 30.09 848 25.04 19.1 66.3 55 10 50
08:25 1019 30.09 848 25.04 19.3 66.8 55 10.1 50.2
08:30 1019 30.09 848 25.04 19.6 67.2 54 10.1 50.1
08:35 1019 30.09 848 25.04 19.4 66.8 55 10.1 50.2
08:40 1019 30.09 848 25.04 19.8 67.7 53 10.2 50.3
08:45 1019 30.09 848 25.04 20.3 68.5 53 10.5 51
08:50 1019 30.09 848 25.04 20.7 69.3 51 10.3 50.5
08:55 1019 30.09 848 25.04 20.7 69.3 50 10.1 50.1
09:00 1018 30.06 848 25.04 21.6 70.9 47 10.1 50.2
09:05 1018 30.06 847 25.01 21.8 71.3 48 10.5 50.9
09:10 1018 30.06 847 25.01 22.1 71.8 48 10.6 51.1
09:15 1018 30.06 847 25.01 22.4 72.2 46 10.4 50.8
09:20 1018 30.06 847 25.01 22.3 72.1 47 10.5 51
09:25 1018 30.06 847 25.01 22.4 72.3 46 10.4 50.7
09:30 1018 30.06 847 25.01 22.8 73 44 10.1 50.1
09:35 1018 30.06 847 25.01 23.1 73.6 46 11.1 52
09:40 1018 30.06 847 25.01 23.6 74.5 43 10.6 51.1
09:45 1018 30.06 847 25.01 23.6 74.5 45 11.1 52
09:50 1018 30.06 847 25.01 23 73.4 48 11.5 52.7
09:55 1018 30.06 847 25.01 23.2 73.7 48 11.7 53
10:00 1018 30.06 847 25.01 23 73.5 50 12.2 54
10:05 1018 30.06 847 25.01 22.5 72.4 51 12 53.6
10:10 1018 30.06 847 25.01 23.1 73.5 49 11.8 53.2
10:15 1018 30.06 847 25.01 23.6 74.6 50 12.8 55
10:20 1018 30.06 847 25.01 23.1 73.5 50 12.3 54.1
10:25 1018 30.06 847 25.01 23.9 75 48 12.4 54.3
10:30 1018 30.06 847 25.01 24 75.3 47 12.1 53.8
10:35 1018 30.06 847 25.01 24.5 76.1 46 12.3 54.2
10:40 1018 30.06 847 25.01 24.7 76.4 43 11.6 52.8
10:45 1018 30.06 847 25.01 24.9 76.7 43 11.6 53
10:50 1018 30.06 847 25.01 25 76.9 43 11.6 52.9
10:55 1017 30.03 847 25.01 25.1 77.2 44 12.2 54
11:00 1017 30.03 847 25.01 25.2 77.4 41 11.4 52.5
11:05 1017 30.03 847 25.01 25.8 78.4 41 11.8 53.2
11:10 1017 30.03 847 25.01 24.2 75.6 44 11.5 52.7
11:15 1017 30.03 846 24.98 23.9 75 43 10.8 51.5
11:20 1017 30.03 846 24.98 24.2 75.6 39 9.8 49.6
11:25 1017 30.03 846 24.98 24.5 76.1 40 10.1 50.1
11:30 1017 30.03 846 24.98 24.9 76.9 41 11.2 52.1
11:35 1017 30.03 846 24.98 25.4 77.6 39 10.7 51.3
11:40 1017 30.03 846 24.98 26.2 79.1 39 11.3 52.3
11:45 1017 30.03 846 24.98 25.7 78.2 43 12.3 54.2
11:50 1017 30.03 846 24.98 25.6 78.1 43 12.3 54.1
11:55 1017 30.03 846 24.98 26.6 79.8 42 12.7 54.9
12:00 1017 30.03 846 24.98 27 80.6 39 12.2 53.9
12:05 1017 30.03 846 24.98 26.6 79.8 41 12.5 54.5
12:10 1017 30.03 846 24.98 26.9 80.3 38 11.5 52.7
12:15 1017 30.03 846 24.98 26.6 79.8 38 11.4 52.5
12:20 1017 30.03 846 24.98 26 78.8 37 10.5 51
12:25 1016 30 846 24.98 26.3 79.3 40 11.8 53.3
12:30 1017 30.03 846 24.98 27.1 80.8 38 11.7 53.1
12:35 1016 30 846 24.98 27.9 82.3 37 12.3 54.1
12:40 1016 30 846 24.98 27.9 82.1 39 12.7 54.9
12:45 1016 30 845 24.95 27.7 81.8 35 11.1 52
12:50 1016 30 845 24.95 27.9 82.1 37 12.3 54.1
12:55 1016 30 845 24.95 28.3 82.9 33 10.8 51.5
13:00 1016 30 845 24.95 28.5 83.4 36 12.1 53.8
13:05 1016 30 845 24.95 28.6 83.4 33 11.1 52.1
13:10 1016 30 845 24.95 29.1 84.3 33 11.7 53
13:15 1016 30 845 24.95 29.4 84.8 33 11.8 53.2
13:20 1016 30 845 24.95 29.8 85.7 32 11.7 53.1
13:25 1016 30 845 24.95 30.1 86.2 30 11.1 52.1
13:30 1016 30 845 24.95 30.2 86.3 31 11.4 52.5
13:35 1016 30 845 24.95 30.3 86.6 31 11.7 53.1
13:40 1016 30 845 24.95 29.8 85.7 32 11.5 52.6
13:45 1016 30 845 24.95 29.9 85.7 30 10.7 51.2
13:50 1016 30 845 24.95 30.2 86.4 30 10.8 51.4
13:55 1016 30 845 24.95 30.3 86.5 30 10.9 51.6
14:00 1015 29.97 845 24.95 30.9 87.6 29 11 51.7
14:05 1015 29.97 845 24.95 30.8 87.4 28 10.3 50.5
14:10 1015 29.97 845 24.95 31.2 88.2 28 10.7 51.3
14:15 1015 29.97 845 24.95 31.6 88.8 22 7.9 46.1
14:20 1015 29.97 844 24.92 31.3 88.3 25 9.3 48.7
14:25 1015 29.97 844 24.92 30.4 86.8 23 7.3 45.2
14:30 1015 29.97 844 24.92 30.6 87.1 19 4.8 40.7
14:35 1015 29.97 844 24.92 31 87.8 20 5.8 42.5
14:40 1015 29.97 844 24.92 31.3 88.3 19 5 40.9
14:45 1015 29.97 844 24.92 31.3 88.3 19 5.6 42.1
14:50 1015 29.97 844 24.92 31.7 89.1 23 8.3 47
14:55 1015 29.97 844 24.92 31.5 88.7 19 5.2 41.4
15:00 1015 29.97 844 24.92 31.8 89.2 19 5.9 42.6
15:05 1015 29.97 844 24.92 32.2 90 17 4.8 40.6
15:10 1015 29.97 844 24.92 32.4 90.3 15 3.3 37.9
15:15 1015 29.97 844 24.92 32.7 90.8 16 4 39.1
15:20 1015 29.97 844 24.92 32.2 89.9 15 2.3 36.2
15:25 1015 29.97 844 24.92 31.7 89.1 16 3.2 37.8
15:30 1015 29.97 844 24.92 32.1 89.8 15 2.8 37
15:35 1015 29.97 844 24.92 32 89.6 14 1.8 35.3
15:40 1015 29.97 844 24.92 32.4 90.4 16 3.4 38.1
15:45 1015 29.97 844 24.92 32.1 89.9 16 3.3 38
15:50 1015 29.97 844 24.92 31.5 88.7 14 1.6 34.9
15:55 1014 29.94 844 24.92 31.3 88.3 15 2 35.6
16:00 1014 29.94 844 24.92 30.6 87.1 18 3.8 38.9
16:05 1014 29.94 844 24.92 30.9 87.7 17 3.2 37.8
16:10 1014 29.94 844 24.92 30.9 87.7 15 1.9 35.4
16:15 1014 29.94 843 24.89 30.4 86.7 17 3.4 38.1
16:20 1014 29.94 843 24.89 30.6 87.1 16 2.7 36.9
16:25 1014 29.94 843 24.89 30.8 87.4 19 4.6 40.3
16:30 1014 29.94 843 24.89 30.6 87 16 2.2 36
16:35 1014 29.94 843 24.89 30.2 86.3 18 3.4 38.2
16:40 1014 29.94 843 24.89 30.7 87.2 16 1.9 35.5
16:45 1014 29.94 843 24.89 31.2 88.2 15 2 35.6
16:50 1014 29.94 843 24.89 31.4 88.4 17 3.7 38.6
16:55 1014 29.94 843 24.89 31.3 88.3 14 1.2 34.2
17:00 1014 29.94 843 24.89 31.3 88.3 15 2.2 36
17:05 1014 29.94 843 24.89 31.5 88.7 15 2.4 36.4
17:10 1014 29.94 843 24.89 31.2 88.1 19 5.1 41.2
17:15 1014 29.94 843 24.89 31 87.9 17 3.7 38.7
17:20 1014 29.94 843 24.89 31 87.8 18 4 39.3
17:25 1014 29.94 843 24.89 30.7 87.3 15 1.8 35.3
17:30 1014 29.94 843 24.89 30.8 87.4 18 3.8 38.8
17:35 1014 29.94 843 24.89 30.7 87.3 16 2.8 37.1
17:40 1013 29.91 843 24.89 30.5 86.9 17 3.4 38.1
17:45 1013 29.91 843 24.89 30.3 86.5 18 4 39.2
17:50 1013 29.91 843 24.89 30.2 86.3 20 5 41.1
17:55 1013 29.91 842 24.86 29.9 85.8 19 3.9 39
18:00 1013 29.91 842 24.86 29.9 85.8 21 5.7 42.2
18:05 1013 29.91 842 24.86 29.4 84.9 23 6.1 43.1
18:10 1013 29.91 842 24.86 29.1 84.4 23 6.1 43.1
18:15 1013 29.91 842 24.86 29 84.3 25 7.3 45.1
18:20 1013 29.91 842 24.86 28.5 83.2 27 7.7 45.9
18:25 1013 29.91 842 24.86 28.1 82.6 25 6.4 43.4
18:30 1013 29.91 842 24.86 28.3 82.9 23 5.5 41.8
18:35 1013 29.91 842 24.86 28.6 83.4 24 6.3 43.4
18:40 1013 29.91 842 24.86 28.5 83.4 23 5.8 42.4
18:45 1013 29.91 842 24.86 28.3 83 22 5 41
18:50 1013 29.91 842 24.86 28.5 83.2 22 5.3 41.6
18:55 1013 29.91 842 24.86 28.4 83.1 24 6.2 43.2
19:00 1013 29.91 842 24.86 28 82.4 25 6.7 44
19:05 1013 29.91 842 24.86 27.7 81.8 25 6.4 43.5
19:10 1013 29.91 842 24.86 27.6 81.7 27 7.4 45.4
19:15 1013 29.91 842 24.86 27.4 81.4 25 5.8 42.4
19:20 1013 29.91 842 24.86 27.5 81.5 25 6.1 43
19:25 1013 29.91 842 24.86 27.4 81.4 23 5 41.1
19:30 1013 29.91 842 24.86 26.9 80.3 28 7.3 45.2
19:35 1013 29.91 842 24.86 26.4 79.5 28 6.5 43.7
19:40 1013 29.91 842 24.86 26.4 79.5 24 4.7 40.4
19:45 1013 29.91 842 24.86 26.6 79.8 24 4.4 39.8
19:50 1013 29.91 842 24.86 26.6 80 25 5.1 41.3
19:55 1013 29.91 842 24.86 26.7 80.1 23 4.3 39.8
20:00 1013 29.91 842 24.86 26.8 80.2 23 4.4 39.9
20:05 1013 29.91 842 24.86 26.6 79.9 23 4.2 39.6
20:10 1013 29.91 842 24.86 26.4 79.5 24 4.2 39.6
20:15 1013 29.91 842 24.86 26.5 79.7 24 4.5 40.1
20:20 1013 29.91 843 24.89 26.2 79.2 25 4.9 40.9
20:25 1014 29.94 843 24.89 26.1 79.1 23 3.8 38.9
20:30 1014 29.94 843 24.89 26.6 79.9 21 3 37.4
20:35 1014 29.94 843 24.89 26.8 80.3 19 1.9 35.4
20:40 1014 29.94 843 24.89 27 80.6 18 0.7 33.3
20:45 1014 29.94 843 24.89 27 80.6 18 1.2 34.2
20:50 1014 29.94 843 24.89 26.6 79.8 19 1 33.9
20:55 1014 29.94 843 24.89 26.3 79.3 18 0.5 32.9
21:00 1014 29.94 843 24.89 26 78.8 19 0.8 33.4
21:05 1014 29.94 844 24.92 25.9 78.6 19 0.5 33
21:10 1014 29.94 843 24.89 25.6 78.1 21 1.9 35.3
21:15 1014 29.94 843 24.89 25.5 77.9 19 0.1 32.2
21:20 1013 29.91 843 24.89 25 77 23 2.7 36.8
21:25 1014 29.94 843 24.89 24.3 75.7 25 3.1 37.6
21:30 1014 29.94 843 24.89 23.7 74.7 25 2.8 37
21:35 1014 29.94 843 24.89 23.5 74.4 26 3.3 38
21:40 1014 29.94 844 24.92 23.1 73.6 28 3.7 38.6
21:45 1015 29.97 844 24.92 22.9 73.1 29 3.9 39.1
21:50 1015 29.97 844 24.92 22.6 72.6 31 5 40.9
21:55 1015 29.97 844 24.92 22.5 72.5 30 4.1 39.5
22:00 1015 29.97 844 24.92 22.4 72.3 30 4.2 39.6
22:05 1015 29.97 844 24.92 22.3 72.1 30 4.2 39.5
22:10 1015 29.97 845 24.95 21.8 71.2 34 5.2 41.4
22:15 1015 29.97 845 24.95 21.2 70.1 35 5.2 41.4
22:20 1015 29.97 845 24.95 20.9 69.5 39 6.5 43.7
22:25 1015 29.97 844 24.92 20 68 41 6.5 43.7
22:30 1015 29.97 845 24.95 20.3 68.5 36 4.7 40.5
22:35 1015 29.97 845 24.95 20.8 69.5 33 4 39.2
22:40 1015 29.97 845 24.95 21.3 70.4 33 4.4 40
22:45 1015 29.97 845 24.95 21.7 71 31 4.1 39.5
22:50 1015 29.97 845 24.95 21.7 71 32 4.5 40.1
22:55 1015 29.97 844 24.92 21.2 70.1 35 5.4 41.7
23:00 1015 29.97 844 24.92 20.9 69.6 33 4.3 39.8
23:05 1015 29.97 844 24.92 21.2 70.2 33 4.4 40
23:10 1015 29.97 844 24.92 21.2 70.1 33 4.3 39.7
23:15 1014 29.94 843 24.89 21.8 71.2 30 3.7 38.7
23:20 1013 29.91 843 24.89 22.2 72 28 3.3 37.9
23:25 1013 29.91 843 24.89 22.8 73.1 25 2.2 35.9
23:30 1013 29.91 843 24.89 23.4 74.1 24 1.8 35.3
23:35 1013 29.91 843 24.89 23.4 74 29 4.4 40
23:40 1014 29.94 843 24.89 22.3 72.1 30 4 39.1
23:45 1014 29.94 843 24.89 22.1 71.8 28 2.9 37.3
23:50 1014 29.94 843 24.89 22.2 72 29 3.7 38.7
23:55 1014 29.94 843 24.89 21.8 71.2 31 4.2 39.6
24:00 1014 29.94 843 24.89 21.5 70.8 31 3.8 38.8